Time,TemperatureF,DewpointF,PressureIn,WindDirection,WindDirectionDegrees,WindSpeedMPH,WindSpeedGustMPH,Humidity,HourlyPrecipIn,Conditions,Clouds,dailyrainin,SoftwareType,DateUTC
2013-02-25 00:00:00,74.7,67.0,29.87,WSW,248,0.0,0.2,77,0.00,CLR,,0.00,WeatherDisplay:10.37,2013-02-25 05:00:00,
2013-02-25 00:02:00,74.7,67.0,29.87,WSW,248,1.1,1.1,77,0.00,CLR,,0.00,WeatherDisplay:10.37,2013-02-25 05:02:00,
2013-02-25 00:07:00,74.5,66.8,29.87,WSW,248,0.0,0.2,77,0.00,CLR,,0.00,WeatherDisplay:10.37,2013-02-25 05:07:00,
2013-02-25 00:12:00,74.5,66.8,29.86,South,180,1.1,1.1,77,0.00,CLR,,0.00,WeatherDisplay:10.37,2013-02-25 05:12:00,
2013-02-25 00:17:00,74.7,67.0,29.86,SW,225,2.3,2.3,77,0.00,CLR,,0.00,WeatherDisplay:10.37,2013-02-25 05:17:00,
2013-02-25 00:22:00,74.7,67.0,29.86,NNE,22,1.1,1.1,77,0.00,CLR,,0.00,WeatherDisplay:10.37,2013-02-25 05:22:00,
2013-02-25 00:27:00,74.3,66.6,29.86,NW,315,1.1,1.1,77,0.00,CLR,,0.00,WeatherDisplay:10.37,2013-02-25 05:27:00,
2013-02-25 00:32:00,74.3,66.6,29.88,WSW,248,0.0,0.1,77,0.00,CLR,,0.00,WeatherDisplay:10.37,2013-02-25 05:32:00,
2013-02-25 00:37:00,74.3,66.6,29.88,WSW,248,0.0,0.0,77,0.00,CLR,,0.00,WeatherDisplay:10.37,2013-02-25 05:37:00,
2013-02-25 00:42:00,74.3,66.6,29.88,WSW,248,0.0,0.1,77,0.00,CLR,,0.00,WeatherDisplay:10.37,2013-02-25 05:42:00,
2013-02-25 00:47:00,74.1,66.4,29.88,WSW,248,0.0,0.1,77,0.00,CLR,,0.00,WeatherDisplay:10.37,2013-02-25 05:47:00,
2013-02-25 00:52:00,74.3,66.6,29.87,WSW,248,0.0,0.1,77,0.00,CLR,,0.00,WeatherDisplay:10.37,2013-02-25 05:52:00,
2013-02-25 00:57:00,73.9,66.3,29.87,WSW,248,0.0,0.0,77,0.00,CLR,,0.00,WeatherDisplay:10.37,2013-02-25 05:57:00,
2013-02-25 01:02:00,73.9,66.3,29.87,West,270,0.0,0.0,77,0.00,CLR,,0.00,WeatherDisplay:10.37,2013-02-25 06:02:00,
2013-02-25 01:07:00,73.9,66.6,29.87,SW,225,0.0,0.0,78,0.00,CLR,,0.00,WeatherDisplay:10.37,2013-02-25 06:07:00,
2013-02-25 01:12:00,73.8,66.5,29.87,West,270,0.0,0.0,78,0.00,CLR,,0.00,WeatherDisplay:10.37,2013-02-25 06:12:00,
2013-02-25 01:17:00,73.9,66.6,29.87,West,270,0.0,0.0,78,0.00,CLR,,0.00,WeatherDisplay:10.37,2013-02-25 06:17:00,
2013-02-25 01:22:00,73.8,66.5,29.87,WSW,248,0.0,0.0,78,0.00,CLR,,0.00,WeatherDisplay:10.37,2013-02-25 06:22:00,
2013-02-25 01:27:00,73.6,66.3,29.86,WSW,248,0.0,0.0,78,0.00,CLR,,0.00,WeatherDisplay:10.37,2013-02-25 06:27:00,
2013-02-25 01:32:00,73.6,66.3,29.86,SW,225,1.1,1.1,78,0.00,CLR,,0.00,WeatherDisplay:10.37,2013-02-25 06:32:00,
2013-02-25 01:37:00,73.6,66.3,29.86,WSW,248,2.0,2.0,78,0.00,CLR,,0.00,WeatherDisplay:10.37,2013-02-25 06:37:00,
2013-02-25 01:42:00,73.6,66.3,29.86,NW,315,0.0,0.2,78,0.00,CLR,,0.00,WeatherDisplay:10.37,2013-02-25 06:42:00,
2013-02-25 01:47:00,73.6,66.3,29.85,South,180,1.8,1.8,78,0.00,CLR,,0.00,WeatherDisplay:10.37,2013-02-25 06:47:00,
2013-02-25 01:52:00,73.6,66.3,29.85,West,270,0.0,0.1,78,0.00,CLR,,0.00,WeatherDisplay:10.37,2013-02-25 06:52:00,
2013-02-25 01:57:00,73.6,66.3,29.85,WNW,292,0.0,0.2,78,0.00,CLR,,0.00,WeatherDisplay:10.37,2013-02-25 06:57:00,
2013-02-25 02:02:00,73.6,66.3,29.85,WSW,248,0.0,0.1,78,0.00,CLR,,0.00,WeatherDisplay:10.37,2013-02-25 07:02:00,
2013-02-25 02:07:00,73.4,66.1,29.85,West,270,0.0,0.0,78,0.00,CLR,,0.00,WeatherDisplay:10.37,2013-02-25 07:07:00,
2013-02-25 02:12:00,73.2,65.9,29.85,South,180,0.0,0.0,78,0.00,CLR,,0.00,WeatherDisplay:10.37,2013-02-25 07:12:00,
2013-02-25 02:17:00,73.0,65.8,29.85,South,180,0.0,0.0,78,0.00,CLR,,0.00,WeatherDisplay:10.37,2013-02-25 07:17:00,
2013-02-25 02:22:00,73.0,65.8,29.85,South,180,0.0,0.0,78,0.00,CLR,,0.00,WeatherDisplay:10.37,2013-02-25 07:22:00,
2013-02-25 02:27:00,73.0,65.8,29.84,WSW,248,0.0,0.0,78,0.00,CLR,,0.00,WeatherDisplay:10.37,2013-02-25 07:27:00,
2013-02-25 02:32:00,73.0,66.1,29.84,West,270,0.0,0.0,79,0.00,CLR,,0.00,WeatherDisplay:10.37,2013-02-25 07:32:00,
2013-02-25 02:37:00,72.9,66.0,29.84,SW,225,0.0,0.0,79,0.00,CLR,,0.00,WeatherDisplay:10.37,2013-02-25 07:37:00,
2013-02-25 02:42:00,72.9,66.0,29.84,SW,225,0.0,0.0,79,0.00,CLR,,0.00,WeatherDisplay:10.37,2013-02-25 07:42:00,
2013-02-25 02:47:00,72.9,66.0,29.83,North,0,0.0,0.0,79,0.00,CLR,,0.00,WeatherDisplay:10.37,2013-02-25 07:47:00,
2013-02-25 02:52:00,72.5,65.6,29.83,NNW,338,0.0,0.0,79,0.00,CLR,,0.00,WeatherDisplay:10.37,2013-02-25 07:52:00,
2013-02-25 02:57:00,72.3,65.4,29.83,WSW,248,0.0,0.0,79,0.00,CLR,,0.00,WeatherDisplay:10.37,2013-02-25 07:57:00,
2013-02-25 03:02:00,72.3,65.4,29.83,NW,315,0.0,0.0,79,0.00,CLR,,0.00,WeatherDisplay:10.37,2013-02-25 08:02:00,
2013-02-25 03:07:00,72.3,65.4,29.83,NW,315,0.0,0.0,79,0.00,CLR,,0.00,WeatherDisplay:10.37,2013-02-25 08:07:00,
2013-02-25 03:12:00,72.3,65.4,29.83,NW,315,0.0,0.0,79,0.00,CLR,,0.00,WeatherDisplay:10.37,2013-02-25 08:12:00,
2013-02-25 03:17:00,72.1,65.3,29.83,NW,315,0.0,0.0,79,0.00,CLR,,0.00,WeatherDisplay:10.37,2013-02-25 08:17:00,
2013-02-25 03:22:00,72.1,65.6,29.83,NNW,338,0.0,0.0,80,0.00,CLR,,0.00,WeatherDisplay:10.37,2013-02-25 08:22:00,
2013-02-25 03:27:00,72.0,65.1,29.83,ESE,112,0.0,0.0,79,0.00,CLR,,0.00,WeatherDisplay:10.37,2013-02-25 08:27:00,
2013-02-25 03:32:00,72.0,65.1,29.83,ESE,112,0.0,0.0,79,0.00,CLR,,0.00,WeatherDisplay:10.37,2013-02-25 08:32:00,
2013-02-25 03:37:00,72.0,65.1,29.83,East,90,0.0,0.0,79,0.00,CLR,,0.00,WeatherDisplay:10.37,2013-02-25 08:37:00,
2013-02-25 03:42:00,72.0,65.1,29.83,SE,135,0.0,0.0,79,0.00,CLR,,0.00,WeatherDisplay:10.37,2013-02-25 08:42:00,
2013-02-25 03:47:00,71.8,64.9,29.83,SSE,158,0.0,0.0,79,0.00,CLR,,0.00,WeatherDisplay:10.37,2013-02-25 08:47:00,
2013-02-25 03:52:00,71.8,64.9,29.83,SE,135,0.0,0.0,79,0.00,CLR,,0.00,WeatherDisplay:10.37,2013-02-25 08:52:00,
2013-02-25 03:57:00,71.8,64.9,29.83,SSE,158,0.0,0.0,79,0.00,CLR,,0.00,WeatherDisplay:10.37,2013-02-25 08:57:00,
2013-02-25 04:02:00,71.8,64.9,29.83,WSW,248,0.0,0.0,79,0.00,CLR,,0.00,WeatherDisplay:10.37,2013-02-25 09:02:00,
2013-02-25 04:07:00,71.6,64.7,29.82,ESE,112,0.0,0.0,79,0.00,CLR,,0.00,WeatherDisplay:10.37,2013-02-25 09:07:00,
2013-02-25 04:12:00,71.6,64.7,29.82,ESE,112,0.0,0.0,79,0.00,CLR,,0.00,WeatherDisplay:10.37,2013-02-25 09:12:00,
2013-02-25 04:17:00,71.6,65.1,29.82,SSE,158,0.0,0.0,80,0.00,CLR,,0.00,WeatherDisplay:10.37,2013-02-25 09:17:00,
2013-02-25 04:22:00,71.8,65.3,29.82,ESE,112,0.0,0.0,80,0.00,CLR,,0.00,WeatherDisplay:10.37,2013-02-25 09:22:00,
2013-02-25 04:27:00,71.6,64.7,29.84,SSE,158,0.0,0.0,79,0.00,CLR,,0.00,WeatherDisplay:10.37,2013-02-25 09:27:00,
2013-02-25 04:33:00,71.6,64.7,29.84,South,180,0.0,0.0,79,0.00,CLR,,0.00,WeatherDisplay:10.37,2013-02-25 09:33:00,
2013-02-25 04:38:00,71.4,64.9,29.84,SE,135,0.0,0.0,80,0.00,CLR,,0.00,WeatherDisplay:10.37,2013-02-25 09:38:00,
2013-02-25 04:43:00,71.4,64.6,29.84,SE,135,0.0,0.0,79,0.00,CLR,,0.00,WeatherDisplay:10.37,2013-02-25 09:43:00,
2013-02-25 04:48:00,71.4,64.9,29.83,East,90,0.0,0.0,80,0.00,CLR,,0.00,WeatherDisplay:10.37,2013-02-25 09:48:00,
2013-02-25 04:53:00,71.4,64.6,29.83,East,90,0.0,0.0,79,0.00,CLR,,0.00,WeatherDisplay:10.37,2013-02-25 09:53:00,
2013-02-25 04:58:00,71.2,64.8,29.83,SE,135,0.0,0.0,80,0.00,CLR,,0.00,WeatherDisplay:10.37,2013-02-25 09:58:00,
2013-02-25 05:03:00,71.1,64.6,29.83,SE,135,0.0,0.0,80,0.00,CLR,,0.00,WeatherDisplay:10.37,2013-02-25 10:03:00,
2013-02-25 05:08:00,71.1,64.6,29.83,East,90,0.0,0.0,80,0.00,CLR,,0.00,WeatherDisplay:10.37,2013-02-25 10:08:00,
2013-02-25 05:13:00,71.1,64.6,29.83,ESE,112,0.0,0.0,80,0.00,CLR,,0.00,WeatherDisplay:10.37,2013-02-25 10:13:00,
2013-02-25 05:18:00,71.1,64.6,29.83,SW,225,0.0,0.0,80,0.00,CLR,,0.00,WeatherDisplay:10.37,2013-02-25 10:18:00,
2013-02-25 05:23:00,71.1,64.6,29.83,SE,135,0.0,0.0,80,0.00,CLR,,0.00,WeatherDisplay:10.37,2013-02-25 10:23:00,
2013-02-25 05:28:00,71.1,64.6,29.83,SSW,202,0.0,0.0,80,0.00,CLR,,0.00,WeatherDisplay:10.37,2013-02-25 10:28:00,
2013-02-25 05:33:00,71.1,64.6,29.83,South,180,0.0,0.0,80,0.00,CLR,,0.00,WeatherDisplay:10.37,2013-02-25 10:33:00,
2013-02-25 05:38:00,70.9,64.4,29.83,SE,135,0.0,0.0,80,0.00,CLR,,0.00,WeatherDisplay:10.37,2013-02-25 10:38:00,
2013-02-25 05:43:00,70.9,64.4,29.83,South,180,0.0,0.0,80,0.00,CLR,,0.00,WeatherDisplay:10.37,2013-02-25 10:43:00,
2013-02-25 05:48:00,70.7,64.2,29.83,SSE,158,0.0,0.0,80,0.00,CLR,,0.00,WeatherDisplay:10.37,2013-02-25 10:48:00,
2013-02-25 05:53:00,70.7,64.2,29.83,WSW,248,0.0,0.0,80,0.00,CLR,,0.00,WeatherDisplay:10.37,2013-02-25 10:53:00,
2013-02-25 05:58:00,70.7,64.6,29.83,North,0,0.0,0.0,81,0.00,CLR,,0.00,WeatherDisplay:10.37,2013-02-25 10:58:00,
2013-02-25 06:03:00,70.5,64.4,29.83,East,90,0.0,0.0,81,0.00,CLR,,0.00,WeatherDisplay:10.37,2013-02-25 11:03:00,
2013-02-25 06:08:00,70.5,64.4,29.83,ESE,112,0.0,0.0,81,0.00,CLR,,0.00,WeatherDisplay:10.37,2013-02-25 11:08:00,
2013-02-25 06:13:00,70.7,64.6,29.83,ESE,112,0.0,0.0,81,0.00,CLR,,0.00,WeatherDisplay:10.37,2013-02-25 11:13:00,
2013-02-25 06:18:00,70.7,64.6,29.83,NE,45,0.0,0.0,81,0.00,CLR,,0.00,WeatherDisplay:10.37,2013-02-25 11:18:00,
2013-02-25 06:23:00,70.7,64.6,29.83,SW,225,0.0,0.0,81,0.00,CLR,,0.00,WeatherDisplay:10.37,2013-02-25 11:23:00,
2013-02-25 06:28:00,70.7,64.6,29.83,SW,225,0.0,0.0,81,0.00,CLR,,0.00,WeatherDisplay:10.37,2013-02-25 11:28:00,
2013-02-25 06:33:00,70.7,64.6,29.83,ENE,68,0.0,0.0,81,0.00,CLR,,0.00,WeatherDisplay:10.37,2013-02-25 11:33:00,
2013-02-25 06:38:00,70.5,64.4,29.83,East,90,0.0,0.0,81,0.00,CLR,,0.00,WeatherDisplay:10.37,2013-02-25 11:38:00,
2013-02-25 06:43:00,70.5,64.4,29.83,ESE,112,0.0,0.0,81,0.00,CLR,,0.00,WeatherDisplay:10.37,2013-02-25 11:43:00,
2013-02-25 06:48:00,70.7,64.6,29.83,SW,225,0.0,0.0,81,0.00,CLR,,0.00,WeatherDisplay:10.37,2013-02-25 11:48:00,
2013-02-25 06:53:00,70.7,64.6,29.83,West,270,0.0,0.0,81,0.00,CLR,,0.00,WeatherDisplay:10.37,2013-02-25 11:53:00,
2013-02-25 06:58:00,70.7,64.6,29.83,ENE,68,0.0,0.0,81,0.00,CLR,,0.00,WeatherDisplay:10.37,2013-02-25 11:58:00,
2013-02-25 07:03:00,70.9,64.8,29.83,SW,225,0.0,0.0,81,0.00,CLR,,0.00,WeatherDisplay:10.37,2013-02-25 12:03:00,
2013-02-25 07:08:00,71.1,64.9,29.83,SW,225,0.0,0.1,81,0.00,CLR,,0.00,WeatherDisplay:10.37,2013-02-25 12:08:00,
2013-02-25 07:13:00,71.2,65.1,29.83,South,180,0.0,0.1,81,0.00,CLR,,0.00,WeatherDisplay:10.37,2013-02-25 12:13:00,
2013-02-25 07:18:00,71.6,65.8,29.83,SW,225,1.6,0.0,82,0.00,CLR,,0.00,WeatherDisplay:10.37,2013-02-25 12:18:00,
2013-02-25 07:23:00,71.6,65.8,29.83,South,180,0.0,0.1,82,0.00,CLR,,0.00,WeatherDisplay:10.37,2013-02-25 12:23:00,
2013-02-25 07:28:00,72.1,66.3,29.83,South,180,0.0,0.1,82,0.00,CLR,,0.00,WeatherDisplay:10.37,2013-02-25 12:28:00,
2013-02-25 07:33:00,72.1,66.3,29.83,SSE,158,0.0,0.1,82,0.00,CLR,,0.00,WeatherDisplay:10.37,2013-02-25 12:33:00,
2013-02-25 07:38:00,72.5,66.7,29.83,SSE,158,0.0,0.1,82,0.00,CLR,,0.00,WeatherDisplay:10.37,2013-02-25 12:38:00,
2013-02-25 07:43:00,72.9,67.0,29.83,SSE,158,0.0,0.0,82,0.00,CLR,,0.00,WeatherDisplay:10.37,2013-02-25 12:43:00,
2013-02-25 07:48:00,73.0,66.9,29.83,South,180,0.0,0.0,81,0.00,CLR,,0.00,WeatherDisplay:10.37,2013-02-25 12:48:00,
2013-02-25 07:53:00,73.6,67.4,29.83,SSE,158,0.0,0.1,81,0.00,CLR,,0.00,WeatherDisplay:10.37,2013-02-25 12:53:00,
2013-02-25 07:58:00,74.1,67.9,29.83,SSE,158,0.0,0.1,81,0.00,CLR,,0.00,WeatherDisplay:10.37,2013-02-25 12:58:00,
2013-02-25 08:04:00,74.7,68.4,29.83,South,180,0.0,0.0,81,0.00,CLR,,0.00,WeatherDisplay:10.37,2013-02-25 13:04:00,
2013-02-25 08:09:00,74.7,68.4,29.85,SSE,158,2.3,2.3,81,0.00,CLR,,0.00,WeatherDisplay:10.37,2013-02-25 13:09:00,
2013-02-25 08:14:00,75.0,68.8,29.85,SSE,158,3.5,3.5,81,0.00,CLR,,0.00,WeatherDisplay:10.37,2013-02-25 13:14:00,
2013-02-25 08:19:00,75.0,68.8,29.85,SE,135,5.1,5.1,81,0.00,CLR,,0.00,WeatherDisplay:10.37,2013-02-25 13:19:00,
2013-02-25 08:24:00,75.4,69.1,29.85,SSE,158,4.6,4.6,81,0.00,CLR,,0.00,WeatherDisplay:10.37,2013-02-25 13:24:00,
2013-02-25 08:29:00,75.4,69.1,29.85,SSE,158,4.6,4.6,81,0.00,CLR,,0.00,WeatherDisplay:10.37,2013-02-25 13:29:00,
2013-02-25 08:34:00,75.6,69.3,29.85,SE,135,5.8,5.8,81,0.00,CLR,,0.00,WeatherDisplay:10.37,2013-02-25 13:34:00,
2013-02-25 08:39:00,75.7,69.5,29.85,NNE,22,0.0,3.2,81,0.00,CLR,,0.00,WeatherDisplay:10.37,2013-02-25 13:39:00,
2013-02-25 08:44:00,75.7,69.1,29.85,South,180,3.5,3.5,80,0.00,CLR,,0.00,WeatherDisplay:10.37,2013-02-25 13:44:00,
2013-02-25 08:49:00,76.1,69.5,29.86,ESE,112,2.3,2.3,80,0.00,CLR,,0.00,WeatherDisplay:10.37,2013-02-25 13:49:00,
2013-02-25 08:54:00,76.6,70.0,29.86,South,180,5.8,5.8,80,0.00,CLR,,0.00,WeatherDisplay:10.37,2013-02-25 13:54:00,
2013-02-25 08:59:00,77.2,70.5,29.86,South,180,3.5,3.5,80,0.00,CLR,,0.00,WeatherDisplay:10.37,2013-02-25 13:59:00,
2013-02-25 09:04:00,77.2,70.5,29.86,South,180,9.2,9.2,80,0.00,CLR,,0.00,WeatherDisplay:10.37,2013-02-25 14:04:00,
2013-02-25 09:09:00,77.5,70.5,29.86,SE,135,4.6,4.6,79,0.00,CLR,,0.00,WeatherDisplay:10.37,2013-02-25 14:09:00,
2013-02-25 09:16:00,78.3,71.2,29.86,SSE,158,7.9,7.9,79,0.00,CLR,,0.00,WeatherDisplay:10.37,2013-02-25 14:16:00,
2013-02-25 09:21:00,77.9,70.5,29.86,SE,135,3.5,4.1,78,0.00,CLR,,0.00,WeatherDisplay:10.37,2013-02-25 14:21:00,
2013-02-25 09:26:00,78.3,70.8,29.86,SE,135,4.6,4.6,78,0.00,CLR,,0.00,WeatherDisplay:10.37,2013-02-25 14:26:00,
2013-02-25 09:31:00,78.4,71.0,29.86,South,180,6.9,6.9,78,0.00,CLR,,0.00,WeatherDisplay:10.37,2013-02-25 14:31:00,
2013-02-25 09:36:00,79.0,71.2,29.86,SE,135,3.5,3.9,77,0.00,CLR,,0.00,WeatherDisplay:10.37,2013-02-25 14:36:00,
2013-02-25 09:41:00,79.0,70.8,29.86,SSE,158,6.9,6.9,76,0.00,CLR,,0.00,WeatherDisplay:10.37,2013-02-25 14:41:00,
2013-02-25 09:46:00,79.7,71.5,29.86,SE,135,4.6,4.9,76,0.00,CLR,,0.00,WeatherDisplay:10.37,2013-02-25 14:46:00,
2013-02-25 09:51:00,79.5,71.3,29.87,SE,135,6.9,6.9,76,0.00,CLR,,0.00,WeatherDisplay:10.37,2013-02-25 14:51:00,
2013-02-25 09:56:00,79.2,70.9,29.87,SE,135,6.9,6.9,76,0.00,CLR,,0.00,WeatherDisplay:10.37,2013-02-25 14:56:00,
2013-02-25 10:01:00,80.1,71.8,29.87,South,180,8.1,8.1,76,0.00,CLR,,0.00,WeatherDisplay:10.37,2013-02-25 15:01:00,
2013-02-25 10:06:00,80.6,71.9,29.87,ESE,112,5.8,5.8,75,0.00,CLR,,0.00,WeatherDisplay:10.37,2013-02-25 15:06:00,
2013-02-25 10:11:00,80.6,71.9,29.86,SE,135,6.9,6.9,75,0.00,CLR,,0.00,WeatherDisplay:10.37,2013-02-25 15:11:00,
2013-02-25 10:16:00,81.3,72.2,29.86,SSE,158,9.2,9.2,74,0.00,CLR,,0.00,WeatherDisplay:10.37,2013-02-25 15:16:00,
2013-02-25 10:21:00,81.5,72.4,29.86,South,180,6.9,6.9,74,0.00,CLR,,0.00,WeatherDisplay:10.37,2013-02-25 15:21:00,
2013-02-25 10:26:00,81.5,72.0,29.86,South,180,9.2,9.2,73,0.00,CLR,,0.00,WeatherDisplay:10.37,2013-02-25 15:26:00,
2013-02-25 10:31:00,81.7,72.2,29.86,SSE,158,9.2,9.2,73,0.00,CLR,,0.00,WeatherDisplay:10.37,2013-02-25 15:31:00,
2013-02-25 10:36:00,82.0,72.1,29.86,SE,135,8.1,8.1,72,0.00,CLR,,0.00,WeatherDisplay:10.37,2013-02-25 15:36:00,
2013-02-25 10:41:00,81.7,71.4,29.86,SE,135,6.9,6.9,71,0.00,CLR,,0.00,WeatherDisplay:10.37,2013-02-25 15:41:00,
2013-02-25 10:46:00,82.2,71.9,29.86,SSE,158,9.2,9.2,71,0.00,CLR,,0.00,WeatherDisplay:10.37,2013-02-25 15:46:00,
2013-02-25 10:51:00,82.2,71.9,29.87,SE,135,8.1,8.1,71,0.00,CLR,,0.00,WeatherDisplay:10.37,2013-02-25 15:51:00,
2013-02-25 10:56:00,82.8,72.4,29.87,WSW,248,8.1,8.1,71,0.00,CLR,,0.00,WeatherDisplay:10.37,2013-02-25 15:56:00,
2013-02-25 11:01:00,82.9,72.6,29.87,South,180,5.8,5.8,71,0.00,CLR,,0.00,WeatherDisplay:10.37,2013-02-25 16:01:00,
2013-02-25 11:06:00,83.1,72.7,29.87,South,180,11.5,11.5,71,0.00,CLR,,0.00,WeatherDisplay:10.37,2013-02-25 16:06:00,
2013-02-25 11:12:00,83.1,72.7,29.86,ESE,112,6.9,6.9,71,0.00,CLR,,0.00,WeatherDisplay:10.37,2013-02-25 16:12:00,
2013-02-25 11:17:00,83.5,73.1,29.86,SSE,158,6.9,6.9,71,0.00,CLR,,0.00,WeatherDisplay:10.37,2013-02-25 16:17:00,
2013-02-25 11:22:00,83.7,72.8,29.86,SSE,158,12.7,12.7,70,0.00,CLR,,0.00,WeatherDisplay:10.37,2013-02-25 16:22:00,
2013-02-25 11:27:00,83.8,73.0,29.86,SSE,158,8.1,8.1,70,0.00,CLR,,0.00,WeatherDisplay:10.37,2013-02-25 16:27:00,
2013-02-25 11:32:00,84.2,73.3,29.85,SE,135,8.1,8.1,70,0.00,CLR,,0.00,WeatherDisplay:10.37,2013-02-25 16:32:00,
2013-02-25 11:37:00,84.4,73.5,29.85,WSW,248,8.1,8.1,70,0.00,CLR,,0.00,WeatherDisplay:10.37,2013-02-25 16:37:00,
2013-02-25 11:42:00,84.7,73.4,29.85,South,180,8.1,8.1,69,0.00,CLR,,0.00,WeatherDisplay:10.37,2013-02-25 16:42:00,
2013-02-25 11:47:00,84.6,73.3,29.85,SE,135,11.5,11.5,69,0.00,CLR,,0.00,WeatherDisplay:10.37,2013-02-25 16:47:00,
2013-02-25 11:52:00,84.9,73.2,29.85,SSE,158,5.8,6.0,68,0.00,CLR,,0.00,WeatherDisplay:10.37,2013-02-25 16:52:00,
2013-02-25 11:57:00,84.9,73.6,29.85,South,180,6.9,6.9,69,0.00,CLR,,0.00,WeatherDisplay:10.37,2013-02-25 16:57:00,
2013-02-25 12:02:00,85.1,73.3,29.85,SSE,158,9.2,9.2,68,0.00,CLR,,0.00,WeatherDisplay:10.37,2013-02-25 17:02:00,
2013-02-25 12:07:00,84.9,73.2,29.85,South,180,8.1,8.1,68,0.00,CLR,,0.00,WeatherDisplay:10.37,2013-02-25 17:07:00,
2013-02-25 12:12:00,85.5,73.7,29.85,SSE,158,6.9,6.9,68,0.00,CLR,,0.00,WeatherDisplay:10.37,2013-02-25 17:12:00,
2013-02-25 12:17:00,85.5,73.7,29.85,SSE,158,8.1,8.1,68,0.00,CLR,,0.00,WeatherDisplay:10.37,2013-02-25 17:17:00,
2013-02-25 12:22:00,85.6,73.4,29.85,SW,225,8.1,8.1,67,0.00,CLR,,0.00,WeatherDisplay:10.37,2013-02-25 17:22:00,
2013-02-25 12:27:00,85.8,73.6,29.85,SE,135,6.9,6.9,67,0.00,CLR,,0.00,WeatherDisplay:10.37,2013-02-25 17:27:00,
2013-02-25 12:32:00,85.8,73.6,29.84,South,180,5.8,5.8,67,0.00,CLR,,0.00,WeatherDisplay:10.37,2013-02-25 17:32:00,
2013-02-25 12:37:00,85.6,73.0,29.84,SE,135,10.4,10.4,66,0.00,CLR,,0.00,WeatherDisplay:10.37,2013-02-25 17:37:00,
2013-02-25 12:42:00,85.5,72.8,29.84,SSE,158,4.6,6.6,66,0.00,CLR,,0.00,WeatherDisplay:10.37,2013-02-25 17:42:00,
2013-02-25 12:47:00,85.8,73.1,29.84,SSE,158,10.4,10.4,66,0.00,CLR,,0.00,WeatherDisplay:10.37,2013-02-25 17:47:00,
2013-02-25 12:52:00,86.0,73.3,29.83,SE,135,9.2,9.2,66,0.00,CLR,,0.00,WeatherDisplay:10.37,2013-02-25 17:52:00,
2013-02-25 12:57:00,86.2,73.5,29.83,ENE,68,9.2,9.2,66,0.00,CLR,,0.00,WeatherDisplay:10.37,2013-02-25 17:57:00,
2013-02-25 13:02:00,86.0,73.3,29.83,SSE,158,9.2,9.2,66,0.00,CLR,,0.00,WeatherDisplay:10.37,2013-02-25 18:02:00,
2013-02-25 13:07:00,85.8,73.1,29.83,SE,135,11.5,11.5,66,0.00,CLR,,0.00,WeatherDisplay:10.37,2013-02-25 18:07:00,
2013-02-25 13:12:00,85.5,73.2,29.83,SSE,158,4.6,6.6,67,0.00,CLR,,0.00,WeatherDisplay:10.37,2013-02-25 18:12:00,
2013-02-25 13:17:00,85.6,73.4,29.83,SE,135,5.8,5.8,67,0.00,CLR,,0.00,WeatherDisplay:10.37,2013-02-25 18:17:00,
2013-02-25 13:22:00,85.5,72.8,29.83,SSE,158,9.2,9.2,66,0.00,CLR,,0.00,WeatherDisplay:10.37,2013-02-25 18:22:00,
2013-02-25 13:27:00,85.5,73.2,29.83,South,180,9.2,9.2,67,0.00,CLR,,0.00,WeatherDisplay:10.37,2013-02-25 18:27:00,
2013-02-25 13:32:00,85.3,73.1,29.82,SE,135,5.8,6.4,67,0.00,CLR,,0.00,WeatherDisplay:10.37,2013-02-25 18:32:00,
2013-02-25 13:37:00,84.7,72.6,29.82,SE,135,13.8,13.8,67,0.00,CLR,,0.00,WeatherDisplay:10.37,2013-02-25 18:37:00,
2013-02-25 13:42:00,84.4,72.7,29.82,SE,135,9.2,9.2,68,0.00,CLR,,0.00,WeatherDisplay:10.37,2013-02-25 18:42:00,
2013-02-25 13:47:00,84.0,72.3,29.82,SSE,158,9.2,9.2,68,0.00,CLR,,0.00,WeatherDisplay:10.37,2013-02-25 18:47:00,
2013-02-25 13:52:00,83.5,71.8,29.81,SE,135,9.2,9.2,68,0.00,CLR,,0.00,WeatherDisplay:10.37,2013-02-25 18:52:00,
2013-02-25 13:57:00,83.3,72.1,29.81,SSE,158,8.1,8.1,69,0.00,CLR,,0.00,WeatherDisplay:10.37,2013-02-25 18:57:00,
2013-02-25 14:02:00,83.3,71.6,29.81,SSE,158,10.4,10.4,68,0.00,CLR,,0.00,WeatherDisplay:10.37,2013-02-25 19:02:00,
2013-02-25 14:07:00,83.1,71.9,29.81,South,180,8.1,8.1,69,0.00,CLR,,0.00,WeatherDisplay:10.37,2013-02-25 19:07:00,
2013-02-25 14:12:00,83.8,72.1,29.81,SSE,158,9.2,9.2,68,0.00,CLR,,0.00,WeatherDisplay:10.37,2013-02-25 19:12:00,
2013-02-25 14:17:00,83.8,72.1,29.81,SSE,158,6.9,7.4,68,0.00,CLR,,0.00,WeatherDisplay:10.37,2013-02-25 19:17:00,
2013-02-25 14:22:00,83.7,72.0,29.81,ESE,112,8.1,8.1,68,0.00,CLR,,0.00,WeatherDisplay:10.37,2013-02-25 19:22:00,
2013-02-25 14:27:00,83.5,71.8,29.81,SE,135,6.9,6.9,68,0.00,CLR,,0.00,WeatherDisplay:10.37,2013-02-25 19:27:00,
2013-02-25 14:32:00,83.5,71.8,29.81,South,180,6.9,6.9,68,0.00,CLR,,0.00,WeatherDisplay:10.37,2013-02-25 19:32:00,
2013-02-25 14:37:00,83.1,71.5,29.81,SSE,158,8.1,8.1,68,0.00,CLR,,0.00,WeatherDisplay:10.37,2013-02-25 19:37:00,
2013-02-25 14:42:00,83.1,71.5,29.81,South,180,11.5,11.5,68,0.00,CLR,,0.00,WeatherDisplay:10.37,2013-02-25 19:42:00,
2013-02-25 14:47:00,82.6,71.4,29.81,South,180,6.9,6.9,69,0.00,CLR,,0.00,WeatherDisplay:10.37,2013-02-25 19:47:00,
2013-02-25 14:52:00,82.2,71.5,29.81,SE,135,10.4,10.4,70,0.00,CLR,,0.00,WeatherDisplay:10.37,2013-02-25 19:52:00,
2013-02-25 14:57:00,82.2,71.5,29.81,SE,135,8.1,8.1,70,0.00,CLR,,0.00,WeatherDisplay:10.37,2013-02-25 19:57:00,
2013-02-25 15:02:00,82.0,71.3,29.81,South,180,6.9,6.9,70,0.00,CLR,,0.00,WeatherDisplay:10.37,2013-02-25 20:02:00,
2013-02-25 15:07:00,81.5,70.8,29.81,SW,225,10.4,10.4,70,0.00,CLR,,0.00,WeatherDisplay:10.37,2013-02-25 20:07:00,
2013-02-25 15:12:00,81.1,70.8,29.81,South,180,10.4,10.4,71,0.00,CLR,,0.00,WeatherDisplay:10.37,2013-02-25 20:12:00,
2013-02-25 15:17:00,81.1,70.8,29.81,SE,135,6.9,6.9,71,0.00,CLR,,0.00,WeatherDisplay:10.37,2013-02-25 20:17:00,
2013-02-25 15:22:00,81.0,70.7,29.81,SE,135,9.2,9.2,71,0.00,CLR,,0.00,WeatherDisplay:10.37,2013-02-25 20:22:00,
2013-02-25 15:27:00,81.0,70.7,29.81,South,180,6.9,6.9,71,0.00,CLR,,0.00,WeatherDisplay:10.37,2013-02-25 20:27:00,
2013-02-25 15:32:00,80.8,70.5,29.81,South,180,9.2,9.2,71,0.00,CLR,,0.00,WeatherDisplay:10.37,2013-02-25 20:32:00,
2013-02-25 15:37:00,81.1,71.3,29.81,South,180,6.9,6.9,72,0.00,CLR,,0.00,WeatherDisplay:10.37,2013-02-25 20:37:00,
2013-02-25 15:42:00,81.0,71.1,29.81,SSE,158,4.6,6.2,72,0.00,CLR,,0.00,WeatherDisplay:10.37,2013-02-25 20:42:00,
2013-02-25 15:47:00,81.0,71.1,29.81,ESE,112,4.6,5.2,72,0.00,CLR,,0.00,WeatherDisplay:10.37,2013-02-25 20:47:00,
2013-02-25 15:52:00,80.8,70.9,29.81,South,180,8.1,8.1,72,0.00,CLR,,0.00,WeatherDisplay:10.37,2013-02-25 20:52:00,
2013-02-25 15:57:00,80.4,71.0,29.81,SE,135,4.6,5.2,73,0.00,CLR,,0.00,WeatherDisplay:10.37,2013-02-25 20:57:00,
2013-02-25 16:02:00,80.2,70.8,29.81,SE,135,5.8,5.8,73,0.00,CLR,,0.00,WeatherDisplay:10.37,2013-02-25 21:02:00,
2013-02-25 16:07:00,80.4,71.0,29.81,SE,135,9.2,9.2,73,0.00,CLR,,0.00,WeatherDisplay:10.37,2013-02-25 21:07:00,
2013-02-25 16:12:00,80.4,71.0,29.81,SE,135,6.9,6.9,73,0.00,CLR,,0.00,WeatherDisplay:10.37,2013-02-25 21:12:00,
2013-02-25 16:17:00,80.1,70.6,29.81,SE,135,5.8,5.8,73,0.00,CLR,,0.00,WeatherDisplay:10.37,2013-02-25 21:17:00,
2013-02-25 16:22:00,80.1,70.6,29.81,SSE,158,6.9,6.9,73,0.00,CLR,,0.00,WeatherDisplay:10.37,2013-02-25 21:22:00,
2013-02-25 16:27:00,80.1,71.0,29.80,SE,135,10.4,10.4,74,0.00,CLR,,0.00,WeatherDisplay:10.37,2013-02-25 21:27:00,
2013-02-25 16:32:00,79.9,71.2,29.80,SSE,158,9.2,9.2,75,0.00,CLR,,0.00,WeatherDisplay:10.37,2013-02-25 21:32:00,
2013-02-25 16:37:00,80.1,71.4,29.80,SE,135,6.9,6.9,75,0.00,CLR,,0.00,WeatherDisplay:10.37,2013-02-25 21:37:00,
2013-02-25 16:42:00,80.4,71.8,29.80,NNE,22,5.8,5.8,75,0.00,CLR,,0.00,WeatherDisplay:10.37,2013-02-25 21:42:00,
2013-02-25 16:47:00,80.2,71.2,29.81,SE,135,11.5,11.5,74,0.00,CLR,,0.00,WeatherDisplay:10.37,2013-02-25 21:47:00,
2013-02-25 16:52:00,80.4,71.0,29.81,SSE,158,8.1,8.1,73,0.00,CLR,,0.00,WeatherDisplay:10.37,2013-02-25 21:52:00,
2013-02-25 16:57:00,80.2,70.8,29.81,SSE,158,13.8,13.8,73,0.00,CLR,,0.00,WeatherDisplay:10.37,2013-02-25 21:57:00,
2013-02-25 17:02:00,80.4,71.0,29.81,SSE,158,6.9,6.9,73,0.00,CLR,,0.00,WeatherDisplay:10.37,2013-02-25 22:02:00,
2013-02-25 17:07:00,80.2,70.8,29.79,SE,135,8.1,8.1,73,0.00,CLR,,0.00,WeatherDisplay:10.37,2013-02-25 22:07:00,
2013-02-25 17:12:00,80.1,70.6,29.79,SSE,158,6.9,6.9,73,0.00,CLR,,0.00,WeatherDisplay:10.37,2013-02-25 22:12:00,
2013-02-25 17:17:00,80.2,70.8,29.79,South,180,6.9,6.9,73,0.00,CLR,,0.00,WeatherDisplay:10.37,2013-02-25 22:17:00,
2013-02-25 17:22:00,80.2,70.8,29.79,SE,135,8.1,8.1,73,0.00,CLR,,0.00,WeatherDisplay:10.37,2013-02-25 22:22:00,
2013-02-25 17:27:00,80.2,70.8,29.80,SSE,158,10.4,10.4,73,0.00,CLR,,0.00,WeatherDisplay:10.37,2013-02-25 22:27:00,
2013-02-25 17:33:00,80.2,70.8,29.80,SSE,158,10.4,10.4,73,0.00,CLR,,0.00,WeatherDisplay:10.37,2013-02-25 22:33:00,
2013-02-25 17:38:00,79.7,70.3,29.80,ESE,112,9.2,9.2,73,0.00,CLR,,0.00,WeatherDisplay:10.37,2013-02-25 22:38:00,
2013-02-25 17:43:00,79.7,70.3,29.80,SSE,158,8.1,8.1,73,0.00,CLR,,0.00,WeatherDisplay:10.37,2013-02-25 22:43:00,
2013-02-25 17:48:00,79.3,69.9,29.80,SE,135,6.9,6.9,73,0.00,CLR,,0.00,WeatherDisplay:10.37,2013-02-25 22:48:00,
2013-02-25 17:53:00,79.3,70.3,29.80,South,180,6.9,6.9,74,0.00,CLR,,0.00,WeatherDisplay:10.37,2013-02-25 22:53:00,
2013-02-25 17:58:00,78.8,69.8,29.80,South,180,6.9,6.9,74,0.00,CLR,,0.00,WeatherDisplay:10.37,2013-02-25 22:58:00,
2013-02-25 18:03:00,79.0,70.4,29.80,South,180,5.8,5.8,75,0.00,CLR,,0.00,WeatherDisplay:10.37,2013-02-25 23:03:00,
2013-02-25 18:08:00,78.4,69.9,29.81,SE,135,5.8,5.8,75,0.00,CLR,,0.00,WeatherDisplay:10.37,2013-02-25 23:08:00,
2013-02-25 18:13:00,78.6,70.0,29.81,SE,135,8.1,8.1,75,0.00,CLR,,0.00,WeatherDisplay:10.37,2013-02-25 23:13:00,
2013-02-25 18:18:00,78.1,69.9,29.81,SE,135,6.9,6.9,76,0.00,CLR,,0.00,WeatherDisplay:10.37,2013-02-25 23:18:00,
2013-02-25 18:23:00,78.3,70.1,29.81,SSE,158,9.2,9.2,76,0.00,CLR,,0.00,WeatherDisplay:10.37,2013-02-25 23:23:00,
2013-02-25 18:28:00,77.9,69.7,29.81,South,180,6.9,6.9,76,0.00,CLR,,0.00,WeatherDisplay:10.37,2013-02-25 23:28:00,
2013-02-25 18:33:00,77.9,69.7,29.81,SSE,158,3.5,3.9,76,0.00,CLR,,0.00,WeatherDisplay:10.37,2013-02-25 23:33:00,
2013-02-25 18:38:00,77.5,69.8,29.81,SE,135,8.1,8.1,77,0.00,CLR,,0.00,WeatherDisplay:10.37,2013-02-25 23:38:00,
2013-02-25 18:43:00,77.5,69.8,29.81,SSE,158,3.5,3.6,77,0.00,CLR,,0.00,WeatherDisplay:10.37,2013-02-25 23:43:00,
2013-02-25 18:48:00,77.4,69.6,29.81,SE,135,3.5,3.5,77,0.00,CLR,,0.00,WeatherDisplay:10.37,2013-02-25 23:48:00,
2013-02-25 18:53:00,77.2,69.8,29.81,SSW,202,5.8,5.8,78,0.00,CLR,,0.00,WeatherDisplay:10.37,2013-02-25 23:53:00,
2013-02-25 18:58:00,77.2,69.8,29.81,SE,135,2.3,3.2,78,0.00,CLR,,0.00,WeatherDisplay:10.37,2013-02-25 23:58:00,
2013-02-25 19:03:00,77.0,69.6,29.81,SE,135,4.6,4.6,78,0.00,CLR,,0.00,WeatherDisplay:10.37,2013-02-26 00:03:00,
2013-02-25 19:08:00,77.0,69.6,29.81,SSE,158,4.6,4.6,78,0.00,CLR,,0.00,WeatherDisplay:10.37,2013-02-26 00:08:00,
2013-02-25 19:13:00,76.8,69.4,29.81,West,270,6.9,6.9,78,0.00,CLR,,0.00,WeatherDisplay:10.37,2013-02-26 00:13:00,
2013-02-25 19:18:00,76.8,69.4,29.81,ESE,112,4.6,4.6,78,0.00,CLR,,0.00,WeatherDisplay:10.37,2013-02-26 00:18:00,
2013-02-25 19:23:00,76.8,69.4,29.81,South,180,3.5,3.5,78,0.00,CLR,,0.00,WeatherDisplay:10.37,2013-02-26 00:23:00,
2013-02-25 19:28:00,76.8,69.4,29.82,SSE,158,5.8,5.8,78,0.00,CLR,,0.00,WeatherDisplay:10.37,2013-02-26 00:28:00,
2013-02-25 19:33:00,76.6,69.3,29.82,SSE,158,4.6,4.6,78,0.00,CLR,,0.00,WeatherDisplay:10.37,2013-02-26 00:33:00,
2013-02-25 19:38:00,76.6,69.3,29.82,WSW,248,3.5,3.5,78,0.00,CLR,,0.00,WeatherDisplay:10.37,2013-02-26 00:38:00,
2013-02-25 19:43:00,76.8,69.4,29.82,SE,135,4.6,4.6,78,0.00,CLR,,0.00,WeatherDisplay:10.37,2013-02-26 00:43:00,
2013-02-25 19:48:00,76.6,69.6,29.82,SSE,158,5.8,5.8,79,0.00,CLR,,0.00,WeatherDisplay:10.37,2013-02-26 00:48:00,
2013-02-25 19:53:00,76.6,69.6,29.82,South,180,3.5,3.5,79,0.00,CLR,,0.00,WeatherDisplay:10.37,2013-02-26 00:53:00,
2013-02-25 19:58:00,76.6,69.3,29.82,SSE,158,4.6,4.6,78,0.00,CLR,,0.00,WeatherDisplay:10.37,2013-02-26 00:58:00,
2013-02-25 20:03:00,76.5,69.1,29.82,SE,135,2.3,2.5,78,0.00,CLR,,0.00,WeatherDisplay:10.37,2013-02-26 01:03:00,
2013-02-25 20:08:00,76.3,69.3,29.83,SSE,158,2.3,2.3,79,0.00,CLR,,0.00,WeatherDisplay:10.37,2013-02-26 01:08:00,
2013-02-25 20:13:00,76.5,69.5,29.83,SSE,158,2.3,2.3,79,0.00,CLR,,0.00,WeatherDisplay:10.37,2013-02-26 01:13:00,
2013-02-25 20:18:00,76.5,69.5,29.83,SE,135,4.6,4.6,79,0.00,CLR,,0.00,WeatherDisplay:10.37,2013-02-26 01:18:00,
2013-02-25 20:23:00,76.3,69.3,29.83,SSE,158,1.1,1.6,79,0.00,CLR,,0.00,WeatherDisplay:10.37,2013-02-26 01:23:00,
2013-02-25 20:28:00,76.3,69.3,29.83,ESE,112,3.5,3.5,79,0.00,CLR,,0.00,WeatherDisplay:10.37,2013-02-26 01:28:00,
2013-02-25 20:33:00,76.1,69.1,29.83,SSE,158,1.1,2.0,79,0.00,CLR,,0.00,WeatherDisplay:10.37,2013-02-26 01:33:00,
2013-02-25 20:38:00,75.9,68.9,29.83,SSE,158,3.5,3.5,79,0.00,CLR,,0.00,WeatherDisplay:10.37,2013-02-26 01:38:00,
2013-02-25 20:43:00,76.1,69.5,29.83,SSE,158,2.3,2.3,80,0.00,CLR,,0.00,WeatherDisplay:10.37,2013-02-26 01:43:00,
2013-02-25 20:48:00,76.1,69.5,29.83,South,180,3.5,3.5,80,0.00,CLR,,0.00,WeatherDisplay:10.37,2013-02-26 01:48:00,
2013-02-25 20:53:00,76.1,69.5,29.83,WSW,248,2.3,2.3,80,0.00,CLR,,0.00,WeatherDisplay:10.37,2013-02-26 01:53:00,
2013-02-25 20:58:00,76.1,69.5,29.83,South,180,2.3,2.3,80,0.00,CLR,,0.00,WeatherDisplay:10.37,2013-02-26 01:58:00,
2013-02-25 21:03:00,76.1,69.5,29.83,SE,135,1.1,1.6,80,0.00,CLR,,0.00,WeatherDisplay:10.37,2013-02-26 02:03:00,
2013-02-25 21:08:00,75.9,69.3,29.83,SSE,158,2.3,2.3,80,0.00,CLR,,0.00,WeatherDisplay:10.37,2013-02-26 02:08:00,
2013-02-25 21:13:00,75.9,69.3,29.83,South,180,2.3,2.3,80,0.00,CLR,,0.00,WeatherDisplay:10.37,2013-02-26 02:13:00,
2013-02-25 21:18:00,76.1,69.5,29.83,South,180,4.6,4.6,80,0.00,CLR,,0.00,WeatherDisplay:10.37,2013-02-26 02:18:00,
2013-02-25 21:23:00,76.1,69.5,29.83,SE,135,2.3,2.3,80,0.00,CLR,,0.00,WeatherDisplay:10.37,2013-02-26 02:23:00,
2013-02-25 21:28:00,75.9,69.3,29.83,SE,135,4.6,4.6,80,0.00,CLR,,0.00,WeatherDisplay:10.37,2013-02-26 02:28:00,
2013-02-25 21:33:00,75.9,69.3,29.83,ESE,112,4.6,4.6,80,0.00,CLR,,0.00,WeatherDisplay:10.37,2013-02-26 02:33:00,
2013-02-25 21:38:00,75.9,69.3,29.83,SSE,158,6.9,6.9,80,0.00,CLR,,0.00,WeatherDisplay:10.37,2013-02-26 02:38:00,
2013-02-25 21:43:00,76.1,69.5,29.83,SE,135,5.8,5.8,80,0.00,CLR,,0.00,WeatherDisplay:10.37,2013-02-26 02:43:00,
2013-02-25 21:48:00,75.9,69.3,29.82,SE,135,4.6,4.6,80,0.00,CLR,,0.00,WeatherDisplay:10.37,2013-02-26 02:48:00,
2013-02-25 21:53:00,75.7,69.1,29.82,SSE,158,2.3,3.3,80,0.00,CLR,,0.00,WeatherDisplay:10.37,2013-02-26 02:53:00,
2013-02-25 21:58:00,75.7,69.1,29.82,SE,135,4.6,4.6,80,0.00,CLR,,0.00,WeatherDisplay:10.37,2013-02-26 02:58:00,
2013-02-25 22:03:00,75.6,69.0,29.82,SSE,158,1.1,2.6,80,0.00,CLR,,0.00,WeatherDisplay:10.37,2013-02-26 03:03:00,
2013-02-25 22:08:00,75.7,69.1,29.83,SSE,158,5.8,5.8,80,0.00,CLR,,0.00,WeatherDisplay:10.37,2013-02-26 03:08:00,
2013-02-25 22:13:00,75.7,69.1,29.83,WSW,248,3.5,3.7,80,0.00,CLR,,0.00,WeatherDisplay:10.37,2013-02-26 03:13:00,
2013-02-25 22:18:00,75.7,69.1,29.83,SSE,158,6.9,6.9,80,0.00,CLR,,0.00,WeatherDisplay:10.37,2013-02-26 03:18:00,
2013-02-25 22:23:00,75.7,69.1,29.83,SE,135,6.9,6.9,80,0.00,CLR,,0.00,WeatherDisplay:10.37,2013-02-26 03:23:00,
2013-02-25 22:28:00,75.7,69.1,29.83,SE,135,4.6,4.6,80,0.00,CLR,,0.00,WeatherDisplay:10.37,2013-02-26 03:28:00,
2013-02-25 22:33:00,75.7,69.1,29.83,SSE,158,3.5,3.8,80,0.00,CLR,,0.00,WeatherDisplay:10.37,2013-02-26 03:33:00,
2013-02-25 22:38:00,75.6,68.6,29.83,South,180,4.6,4.6,79,0.00,CLR,,0.00,WeatherDisplay:10.37,2013-02-26 03:38:00,
2013-02-25 22:43:00,75.6,68.6,29.83,SSE,158,2.3,2.6,79,0.00,CLR,,0.00,WeatherDisplay:10.37,2013-02-26 03:43:00,
2013-02-25 22:48:00,75.7,69.1,29.83,SE,135,3.5,3.5,80,0.00,CLR,,0.00,WeatherDisplay:10.37,2013-02-26 03:48:00,
2013-02-25 22:53:00,75.7,69.1,29.83,SSE,158,5.8,5.8,80,0.00,CLR,,0.00,WeatherDisplay:10.37,2013-02-26 03:53:00,
2013-02-25 22:58:00,75.7,69.1,29.83,South,180,9.2,9.2,80,0.00,CLR,,0.00,WeatherDisplay:10.37,2013-02-26 03:58:00,
2013-02-25 23:03:00,75.6,69.0,29.83,SSE,158,3.5,3.8,80,0.00,CLR,,0.00,WeatherDisplay:10.37,2013-02-26 04:03:00,
2013-02-25 23:08:00,75.4,68.8,29.82,SSE,158,4.6,4.6,80,0.00,CLR,,0.00,WeatherDisplay:10.37,2013-02-26 04:08:00,
2013-02-25 23:13:00,75.4,68.8,29.82,ESE,112,2.3,3.6,80,0.00,CLR,,0.00,WeatherDisplay:10.37,2013-02-26 04:13:00,
2013-02-25 23:18:00,75.6,69.0,29.82,SE,135,3.5,3.5,80,0.00,CLR,,0.00,WeatherDisplay:10.37,2013-02-26 04:18:00,
2013-02-25 23:23:00,75.4,68.8,29.82,SSE,158,5.8,5.8,80,0.00,CLR,,0.00,WeatherDisplay:10.37,2013-02-26 04:23:00,
2013-02-25 23:28:00,75.4,68.8,29.82,South,180,4.6,4.6,80,0.00,CLR,,0.00,WeatherDisplay:10.37,2013-02-26 04:28:00,
2013-02-25 23:33:00,75.2,68.6,29.82,South,180,3.5,3.5,80,0.00,CLR,,0.00,WeatherDisplay:10.37,2013-02-26 04:33:00,
2013-02-25 23:38:00,75.2,68.6,29.82,SE,135,2.3,2.8,80,0.00,CLR,,0.00,WeatherDisplay:10.37,2013-02-26 04:38:00,
2013-02-25 23:43:00,75.4,68.8,29.82,SSE,158,4.6,4.6,80,0.00,CLR,,0.00,WeatherDisplay:10.37,2013-02-26 04:43:00,
2013-02-25 23:48:00,75.4,68.8,29.82,SE,135,6.9,6.9,80,0.00,CLR,,0.00,WeatherDisplay:10.37,2013-02-26 04:48:00,
2013-02-25 23:53:00,75.2,68.6,29.82,SSE,158,5.8,5.8,80,0.00,CLR,,0.00,WeatherDisplay:10.37,2013-02-26 04:53:00,
2013-02-25 23:59:00,75.2,68.2,29.82,SE,135,5.8,5.8,79,0.00,CLR,,0.00,WeatherDisplay:10.37,2013-02-26 04:59:00,